sensor_id;sensor_type;location;lat;lon;timestamp;temperature;humidity
7234;DHT22;3658;47.992;10.158;2022-12-11T00:00:36;19.90;39.30
7234;DHT22;3658;47.992;10.158;2022-12-11T00:03:03;19.90;39.40
7234;DHT22;3658;47.992;10.158;2022-12-11T00:05:32;19.90;39.40
7234;DHT22;3658;47.992;10.158;2022-12-11T00:07:59;20.00;39.40
7234;DHT22;3658;47.992;10.158;2022-12-11T00:10:26;20.00;39.40
7234;DHT22;3658;47.992;10.158;2022-12-11T00:12:53;20.00;39.40
7234;DHT22;3658;47.992;10.158;2022-12-11T00:15:20;19.90;39.40
7234;DHT22;3658;47.992;10.158;2022-12-11T00:17:47;20.00;39.40
7234;DHT22;3658;47.992;10.158;2022-12-11T00:20:14;20.00;39.40
7234;DHT22;3658;47.992;10.158;2022-12-11T00:22:43;20.00;39.40
7234;DHT22;3658;47.992;10.158;2022-12-11T00:25:10;20.00;39.40
7234;DHT22;3658;47.992;10.158;2022-12-11T00:27:37;20.00;39.40
7234;DHT22;3658;47.992;10.158;2022-12-11T00:30:05;20.00;39.40
7234;DHT22;3658;47.992;10.158;2022-12-11T00:32:32;20.00;39.40
7234;DHT22;3658;47.992;10.158;2022-12-11T00:34:59;20.00;39.30
7234;DHT22;3658;47.992;10.158;2022-12-11T00:37:26;20.00;39.30
7234;DHT22;3658;47.992;10.158;2022-12-11T00:39:55;20.10;39.40
7234;DHT22;3658;47.992;10.158;2022-12-11T00:42:21;20.10;39.40
7234;DHT22;3658;47.992;10.158;2022-12-11T00:44:48;20.10;39.40
7234;DHT22;3658;47.992;10.158;2022-12-11T00:47:15;20.10;39.40
7234;DHT22;3658;47.992;10.158;2022-12-11T00:49:42;20.10;39.40
7234;DHT22;3658;47.992;10.158;2022-12-11T00:52:09;20.00;39.30
7234;DHT22;3658;47.992;10.158;2022-12-11T00:54:36;20.10;39.40
7234;DHT22;3658;47.992;10.158;2022-12-11T00:57:05;20.00;39.40
7234;DHT22;3658;47.992;10.158;2022-12-11T00:59:33;20.00;39.40
7234;DHT22;3658;47.992;10.158;2022-12-11T01:01:59;20.00;39.40
7234;DHT22;3658;47.992;10.158;2022-12-11T01:04:26;20.00;39.30
7234;DHT22;3658;47.992;10.158;2022-12-11T01:06:53;20.00;39.30
7234;DHT22;3658;47.992;10.158;2022-12-11T01:09:20;20.10;39.40
7234;DHT22;3658;47.992;10.158;2022-12-11T01:12:06;20.10;40.00
7234;DHT22;3658;47.992;10.158;2022-12-11T01:14:33;20.10;39.40
7234;DHT22;3658;47.992;10.158;2022-12-11T01:17:00;20.10;39.40
7234;DHT22;3658;47.992;10.158;2022-12-11T01:19:27;20.10;39.40
7234;DHT22;3658;47.992;10.158;2022-12-11T01:21:54;20.10;39.30
7234;DHT22;3658;47.992;10.158;2022-12-11T01:24:21;20.10;39.30
7234;DHT22;3658;47.992;10.158;2022-12-11T01:26:48;20.10;39.20
7234;DHT22;3658;47.992;10.158;2022-12-11T01:29:16;20.10;39.30
7234;DHT22;3658;47.992;10.158;2022-12-11T01:31:43;20.10;39.40
7234;DHT22;3658;47.992;10.158;2022-12-11T01:34:10;20.10;39.40
7234;DHT22;3658;47.992;10.158;2022-12-11T01:36:37;20.10;39.30
7234;DHT22;3658;47.992;10.158;2022-12-11T01:39:04;20.10;39.30
7234;DHT22;3658;47.992;10.158;2022-12-11T01:41:31;20.20;39.40
7234;DHT22;3658;47.992;10.158;2022-12-11T01:44:00;20.10;39.20
7234;DHT22;3658;47.992;10.158;2022-12-11T01:46:30;20.20;39.30
7234;DHT22;3658;47.992;10.158;2022-12-11T01:48:59;20.10;39.30
7234;DHT22;3658;47.992;10.158;2022-12-11T01:51:28;20.10;39.30
7234;DHT22;3658;47.992;10.158;2022-12-11T01:53:57;20.20;39.30
7234;DHT22;3658;47.992;10.158;2022-12-11T01:56:24;20.10;39.20
7234;DHT22;3658;47.992;10.158;2022-12-11T01:58:56;20.10;39.30
7234;DHT22;3658;47.992;10.158;2022-12-11T02:01:30;20.20;39.40
7234;DHT22;3658;47.992;10.158;2022-12-11T02:03:59;20.20;40.00
7234;DHT22;3658;47.992;10.158;2022-12-11T02:06:30;20.20;39.40
7234;DHT22;3658;47.992;10.158;2022-12-11T02:08:57;20.20;39.40
7234;DHT22;3658;47.992;10.158;2022-12-11T02:11:29;20.20;39.30
7234;DHT22;3658;47.992;10.158;2022-12-11T02:14:05;20.20;39.30
7234;DHT22;3658;47.992;10.158;2022-12-11T02:16:38;20.20;39.30
7234;DHT22;3658;47.992;10.158;2022-12-11T02:19:20;20.20;39.30
7234;DHT22;3658;47.992;10.158;2022-12-11T02:21:55;20.20;39.30
7234;DHT22;3658;47.992;10.158;2022-12-11T02:24:40;20.20;39.30
7234;DHT22;3658;47.992;10.158;2022-12-11T02:27:31;20.20;39.30
7234;DHT22;3658;47.992;10.158;2022-12-11T02:30:04;20.20;39.30
7234;DHT22;3658;47.992;10.158;2022-12-11T02:32:36;20.20;39.20
7234;DHT22;3658;47.992;10.158;2022-12-11T02:35:09;20.20;39.30
7234;DHT22;3658;47.992;10.158;2022-12-11T02:37:40;20.20;39.20
7234;DHT22;3658;47.992;10.158;2022-12-11T02:40:11;20.20;39.20
7234;DHT22;3658;47.992;10.158;2022-12-11T02:42:42;20.20;39.20
7234;DHT22;3658;47.992;10.158;2022-12-11T02:45:11;20.20;39.20
7234;DHT22;3658;47.992;10.158;2022-12-11T02:47:41;20.20;39.20
7234;DHT22;3658;47.992;10.158;2022-12-11T02:50:11;20.20;39.20
7234;DHT22;3658;47.992;10.158;2022-12-11T02:52:41;20.20;39.20
7234;DHT22;3658;47.992;10.158;2022-12-11T02:55:11;20.20;39.20
7234;DHT22;3658;47.992;10.158;2022-12-11T02:57:43;20.30;39.20
7234;DHT22;3658;47.992;10.158;2022-12-11T03:00:13;20.20;39.20
7234;DHT22;3658;47.992;10.158;2022-12-11T03:02:41;20.20;39.20
7234;DHT22;3658;47.992;10.158;2022-12-11T03:05:10;20.20;39.20
7234;DHT22;3658;47.992;10.158;2022-12-11T03:07:40;20.20;39.20
7234;DHT22;3658;47.992;10.158;2022-12-11T03:10:10;20.30;39.30
7234;DHT22;3658;47.992;10.158;2022-12-11T03:12:42;20.20;39.20
7234;DHT22;3658;47.992;10.158;2022-12-11T03:15:12;20.20;39.20
7234;DHT22;3658;47.992;10.158;2022-12-11T03:17:45;20.30;39.20
7234;DHT22;3658;47.992;10.158;2022-12-11T03:20:22;20.30;39.20
7234;DHT22;3658;47.992;10.158;2022-12-11T03:22:59;20.30;39.20
7234;DHT22;3658;47.992;10.158;2022-12-11T03:25:32;20.30;39.20
7234;DHT22;3658;47.992;10.158;2022-12-11T03:28:08;20.20;39.20
7234;DHT22;3658;47.992;10.158;2022-12-11T03:30:38;20.20;39.20
7234;DHT22;3658;47.992;10.158;2022-12-11T03:33:08;20.30;39.20
7234;DHT22;3658;47.992;10.158;2022-12-11T03:35:39;20.30;39.20
7234;DHT22;3658;47.992;10.158;2022-12-11T03:38:10;20.30;39.20
7234;DHT22;3658;47.992;10.158;2022-12-11T03:40:39;20.30;39.20
7234;DHT22;3658;47.992;10.158;2022-12-11T03:43:10;20.30;39.20
7234;DHT22;3658;47.992;10.158;2022-12-11T03:45:39;20.30;39.20
7234;DHT22;3658;47.992;10.158;2022-12-11T03:48:08;20.30;39.10
7234;DHT22;3658;47.992;10.158;2022-12-11T03:50:36;20.30;39.20
7234;DHT22;3658;47.992;10.158;2022-12-11T03:53:04;20.30;39.20
7234;DHT22;3658;47.992;10.158;2022-12-11T03:55:32;20.30;39.20
7234;DHT22;3658;47.992;10.158;2022-12-11T03:57:59;20.30;39.20
7234;DHT22;3658;47.992;10.158;2022-12-11T04:00:27;20.30;39.20
7234;DHT22;3658;47.992;10.158;2022-12-11T04:02:56;20.30;39.10
7234;DHT22;3658;47.992;10.158;2022-12-11T04:05:44;20.30;39.20
7234;DHT22;3658;47.992;10.158;2022-12-11T04:08:11;20.30;39.20
7234;DHT22;3658;47.992;10.158;2022-12-11T04:10:38;20.30;39.20
7234;DHT22;3658;47.992;10.158;2022-12-11T04:13:05;20.30;39.20
7234;DHT22;3658;47.992;10.158;2022-12-11T04:15:32;20.30;39.20
7234;DHT22;3658;47.992;10.158;2022-12-11T04:18:00;20.30;39.20
7234;DHT22;3658;47.992;10.158;2022-12-11T04:20:44;20.30;39.10
7234;DHT22;3658;47.992;10.158;2022-12-11T04:23:28;20.30;39.10
7234;DHT22;3658;47.992;10.158;2022-12-11T04:26:14;20.30;39.10
7234;DHT22;3658;47.992;10.158;2022-12-11T04:28:45;20.30;39.20
7234;DHT22;3658;47.992;10.158;2022-12-11T04:31:13;20.30;39.10
7234;DHT22;3658;47.992;10.158;2022-12-11T04:33:41;20.30;39.10
7234;DHT22;3658;47.992;10.158;2022-12-11T04:36:09;20.30;39.10
7234;DHT22;3658;47.992;10.158;2022-12-11T04:38:37;20.30;39.10
7234;DHT22;3658;47.992;10.158;2022-12-11T04:41:06;20.30;39.10
7234;DHT22;3658;47.992;10.158;2022-12-11T04:43:34;20.30;39.10
7234;DHT22;3658;47.992;10.158;2022-12-11T04:46:02;20.30;39.10
7234;DHT22;3658;47.992;10.158;2022-12-11T04:48:29;20.30;39.30
7234;DHT22;3658;47.992;10.158;2022-12-11T04:50:58;20.40;39.20
7234;DHT22;3658;47.992;10.158;2022-12-11T04:53:26;20.30;39.00
7234;DHT22;3658;47.992;10.158;2022-12-11T04:55:53;20.30;39.10
7234;DHT22;3658;47.992;10.158;2022-12-11T04:58:20;20.40;39.20
7234;DHT22;3658;47.992;10.158;2022-12-11T05:00:47;20.30;39.10
7234;DHT22;3658;47.992;10.158;2022-12-11T05:03:14;20.40;39.10
7234;DHT22;3658;47.992;10.158;2022-12-11T05:05:46;20.40;39.10
7234;DHT22;3658;47.992;10.158;2022-12-11T05:08:16;20.30;39.00
7234;DHT22;3658;47.992;10.158;2022-12-11T05:10:43;20.40;39.20
7234;DHT22;3658;47.992;10.158;2022-12-11T05:13:10;20.30;39.10
7234;DHT22;3658;47.992;10.158;2022-12-11T05:15:38;20.30;39.10
7234;DHT22;3658;47.992;10.158;2022-12-11T05:18:05;20.40;39.20
7234;DHT22;3658;47.992;10.158;2022-12-11T05:20:32;20.40;39.10
7234;DHT22;3658;47.992;10.158;2022-12-11T05:22:59;20.40;39.20
7234;DHT22;3658;47.992;10.158;2022-12-11T05:25:27;20.30;39.10
7234;DHT22;3658;47.992;10.158;2022-12-11T05:27:54;20.40;39.20
7234;DHT22;3658;47.992;10.158;2022-12-11T05:30:21;20.30;39.00
7234;DHT22;3658;47.992;10.158;2022-12-11T05:32:48;20.40;39.10
7234;DHT22;3658;47.992;10.158;2022-12-11T05:35:15;20.40;39.10
7234;DHT22;3658;47.992;10.158;2022-12-11T05:37:42;20.40;39.10
7234;DHT22;3658;47.992;10.158;2022-12-11T05:40:10;20.40;39.10
7234;DHT22;3658;47.992;10.158;2022-12-11T05:42:38;20.40;39.10
7234;DHT22;3658;47.992;10.158;2022-12-11T05:45:06;20.40;39.10
7234;DHT22;3658;47.992;10.158;2022-12-11T05:47:33;20.40;39.10
7234;DHT22;3658;47.992;10.158;2022-12-11T05:50:00;20.40;39.10
7234;DHT22;3658;47.992;10.158;2022-12-11T05:52:27;20.40;39.10
7234;DHT22;3658;47.992;10.158;2022-12-11T05:54:54;20.40;39.10
7234;DHT22;3658;47.992;10.158;2022-12-11T05:57:21;20.40;39.20
7234;DHT22;3658;47.992;10.158;2022-12-11T05:59:49;20.40;39.10
7234;DHT22;3658;47.992;10.158;2022-12-11T06:02:16;20.40;39.10
7234;DHT22;3658;47.992;10.158;2022-12-11T06:04:43;20.40;39.10
7234;DHT22;3658;47.992;10.158;2022-12-11T06:07:10;20.40;39.10
7234;DHT22;3658;47.992;10.158;2022-12-11T06:09:37;20.40;39.00
7234;DHT22;3658;47.992;10.158;2022-12-11T06:12:04;20.40;39.10
7234;DHT22;3658;47.992;10.158;2022-12-11T06:14:31;20.40;39.10
7234;DHT22;3658;47.992;10.158;2022-12-11T06:16:59;20.40;39.10
7234;DHT22;3658;47.992;10.158;2022-12-11T06:19:27;20.40;39.10
7234;DHT22;3658;47.992;10.158;2022-12-11T06:21:54;20.40;39.20
7234;DHT22;3658;47.992;10.158;2022-12-11T06:24:20;20.40;39.00
7234;DHT22;3658;47.992;10.158;2022-12-11T06:26:47;20.40;39.10
7234;DHT22;3658;47.992;10.158;2022-12-11T06:29:14;20.40;39.10
7234;DHT22;3658;47.992;10.158;2022-12-11T06:31:41;20.40;39.00
7234;DHT22;3658;47.992;10.158;2022-12-11T06:34:10;20.40;39.00
7234;DHT22;3658;47.992;10.158;2022-12-11T06:36:39;20.40;39.00
7234;DHT22;3658;47.992;10.158;2022-12-11T06:39:06;20.40;39.00
7234;DHT22;3658;47.992;10.158;2022-12-11T06:41:33;20.40;39.00
7234;DHT22;3658;47.992;10.158;2022-12-11T06:44:00;20.40;39.00
7234;DHT22;3658;47.992;10.158;2022-12-11T06:46:27;20.40;39.10
7234;DHT22;3658;47.992;10.158;2022-12-11T06:48:54;20.40;39.10
7234;DHT22;3658;47.992;10.158;2022-12-11T06:51:22;20.40;39.00
7234;DHT22;3658;47.992;10.158;2022-12-11T06:53:50;20.40;39.00
7234;DHT22;3658;47.992;10.158;2022-12-11T06:56:18;20.40;39.00
7234;DHT22;3658;47.992;10.158;2022-12-11T06:58:45;20.40;39.00
7234;DHT22;3658;47.992;10.158;2022-12-11T07:01:15;20.40;39.10
7234;DHT22;3658;47.992;10.158;2022-12-11T07:03:42;20.40;39.00
7234;DHT22;3658;47.992;10.158;2022-12-11T07:06:09;20.40;39.00
7234;DHT22;3658;47.992;10.158;2022-12-11T07:08:38;20.40;39.00
7234;DHT22;3658;47.992;10.158;2022-12-11T07:11:06;20.40;39.00
7234;DHT22;3658;47.992;10.158;2022-12-11T07:13:33;20.40;39.00
7234;DHT22;3658;47.992;10.158;2022-12-11T07:16:01;20.40;39.00
7234;DHT22;3658;47.992;10.158;2022-12-11T07:18:29;20.40;39.00
7234;DHT22;3658;47.992;10.158;2022-12-11T07:20:57;20.40;39.00
7234;DHT22;3658;47.992;10.158;2022-12-11T07:23:25;20.40;39.00
7234;DHT22;3658;47.992;10.158;2022-12-11T07:25:54;20.40;39.00
7234;DHT22;3658;47.992;10.158;2022-12-11T07:28:21;20.50;39.00
7234;DHT22;3658;47.992;10.158;2022-12-11T07:30:48;20.40;39.00
7234;DHT22;3658;47.992;10.158;2022-12-11T07:33:15;20.40;39.00
7234;DHT22;3658;47.992;10.158;2022-12-11T07:35:42;20.40;39.00
7234;DHT22;3658;47.992;10.158;2022-12-11T07:38:09;20.50;39.10
7234;DHT22;3658;47.992;10.158;2022-12-11T07:40:36;20.40;39.00
7234;DHT22;3658;47.992;10.158;2022-12-11T07:43:05;20.40;38.90
7234;DHT22;3658;47.992;10.158;2022-12-11T07:45:32;20.50;39.00
7234;DHT22;3658;47.992;10.158;2022-12-11T07:47:59;20.40;38.90
7234;DHT22;3658;47.992;10.158;2022-12-11T07:50:26;20.40;39.00
7234;DHT22;3658;47.992;10.158;2022-12-11T07:52:53;20.50;39.00
7234;DHT22;3658;47.992;10.158;2022-12-11T07:55:19;20.50;39.00
7234;DHT22;3658;47.992;10.158;2022-12-11T07:57:46;20.50;39.00
7234;DHT22;3658;47.992;10.158;2022-12-11T08:00:15;20.40;39.00
7234;DHT22;3658;47.992;10.158;2022-12-11T08:02:42;20.40;38.90
7234;DHT22;3658;47.992;10.158;2022-12-11T08:05:09;20.40;38.90
7234;DHT22;3658;47.992;10.158;2022-12-11T08:07:37;20.40;38.90
7234;DHT22;3658;47.992;10.158;2022-12-11T08:10:05;20.50;39.00
7234;DHT22;3658;47.992;10.158;2022-12-11T08:12:32;20.50;39.00
7234;DHT22;3658;47.992;10.158;2022-12-11T08:14:59;20.40;38.90
7234;DHT22;3658;47.992;10.158;2022-12-11T08:17:27;20.40;38.90
7234;DHT22;3658;47.992;10.158;2022-12-11T08:19:54;20.50;39.00
7234;DHT22;3658;47.992;10.158;2022-12-11T08:22:21;20.50;39.00
7234;DHT22;3658;47.992;10.158;2022-12-11T08:24:48;20.50;38.90
7234;DHT22;3658;47.992;10.158;2022-12-11T08:27:15;20.50;38.90
7234;DHT22;3658;47.992;10.158;2022-12-11T08:29:42;20.50;38.90
7234;DHT22;3658;47.992;10.158;2022-12-11T08:32:10;20.50;39.00
7234;DHT22;3658;47.992;10.158;2022-12-11T08:34:39;20.50;38.90
7234;DHT22;3658;47.992;10.158;2022-12-11T08:37:06;20.50;39.00
7234;DHT22;3658;47.992;10.158;2022-12-11T08:39:33;20.50;39.00
7234;DHT22;3658;47.992;10.158;2022-12-11T08:42:00;20.50;38.90
7234;DHT22;3658;47.992;10.158;2022-12-11T08:44:27;20.40;38.60
7234;DHT22;3658;47.992;10.158;2022-12-11T08:46:54;20.40;38.50
7234;DHT22;3658;47.992;10.158;2022-12-11T08:49:21;20.20;38.60
7234;DHT22;3658;47.992;10.158;2022-12-11T08:51:50;20.20;38.90
7234;DHT22;3658;47.992;10.158;2022-12-11T08:54:17;20.10;38.90
7234;DHT22;3658;47.992;10.158;2022-12-11T08:56:44;20.10;39.00
7234;DHT22;3658;47.992;10.158;2022-12-11T08:59:11;20.10;39.10
7234;DHT22;3658;47.992;10.158;2022-12-11T09:01:38;20.10;39.10
7234;DHT22;3658;47.992;10.158;2022-12-11T09:04:07;20.10;39.10
7234;DHT22;3658;47.992;10.158;2022-12-11T09:06:34;20.10;39.20
7234;DHT22;3658;47.992;10.158;2022-12-11T09:09:06;20.10;39.20
7234;DHT22;3658;47.992;10.158;2022-12-11T09:11:35;20.10;39.20
7234;DHT22;3658;47.992;10.158;2022-12-11T09:14:03;20.10;39.20
7234;DHT22;3658;47.992;10.158;2022-12-11T09:16:30;20.00;39.00
7234;DHT22;3658;47.992;10.158;2022-12-11T09:18:58;20.10;39.20
7234;DHT22;3658;47.992;10.158;2022-12-11T09:21:27;20.00;39.10
7234;DHT22;3658;47.992;10.158;2022-12-11T09:23:55;20.00;39.10
7234;DHT22;3658;47.992;10.158;2022-12-11T09:26:24;20.10;39.20
7234;DHT22;3658;47.992;10.158;2022-12-11T09:28:51;20.10;39.20
7234;DHT22;3658;47.992;10.158;2022-12-11T09:31:22;20.00;39.10
7234;DHT22;3658;47.992;10.158;2022-12-11T09:33:50;20.00;39.10
7234;DHT22;3658;47.992;10.158;2022-12-11T09:36:18;20.00;39.10
7234;DHT22;3658;47.992;10.158;2022-12-11T09:38:45;20.00;39.10
7234;DHT22;3658;47.992;10.158;2022-12-11T09:41:28;20.00;39.10
7234;DHT22;3658;47.992;10.158;2022-12-11T09:44:04;20.00;39.10
7234;DHT22;3658;47.992;10.158;2022-12-11T09:46:33;20.00;39.70
7234;DHT22;3658;47.992;10.158;2022-12-11T09:49:02;20.00;39.10
7234;DHT22;3658;47.992;10.158;2022-12-11T09:51:37;20.00;39.10
7234;DHT22;3658;47.992;10.158;2022-12-11T09:54:05;20.00;39.10
7234;DHT22;3658;47.992;10.158;2022-12-11T09:56:40;20.00;39.10
7234;DHT22;3658;47.992;10.158;2022-12-11T09:59:17;20.00;39.10
7234;DHT22;3658;47.992;10.158;2022-12-11T10:01:53;20.00;39.10
7234;DHT22;3658;47.992;10.158;2022-12-11T10:04:33;20.00;39.00
7234;DHT22;3658;47.992;10.158;2022-12-11T10:07:10;20.00;39.10
7234;DHT22;3658;47.992;10.158;2022-12-11T10:09:42;20.00;39.40
7234;DHT22;3658;47.992;10.158;2022-12-11T10:12:25;20.10;39.50
7234;DHT22;3658;47.992;10.158;2022-12-11T10:15:09;20.10;39.50
7234;DHT22;3658;47.992;10.158;2022-12-11T10:17:39;20.10;39.60
7234;DHT22;3658;47.992;10.158;2022-12-11T10:20:16;20.10;39.60
7234;DHT22;3658;47.992;10.158;2022-12-11T10:22:45;20.10;39.60
7234;DHT22;3658;47.992;10.158;2022-12-11T10:25:22;20.10;39.60
7234;DHT22;3658;47.992;10.158;2022-12-11T10:27:52;20.20;39.70
7234;DHT22;3658;47.992;10.158;2022-12-11T10:30:21;20.20;39.60
7234;DHT22;3658;47.992;10.158;2022-12-11T10:32:52;20.20;39.50
7234;DHT22;3658;47.992;10.158;2022-12-11T10:35:26;20.20;39.80
7234;DHT22;3658;47.992;10.158;2022-12-11T10:37:58;20.20;39.80
7234;DHT22;3658;47.992;10.158;2022-12-11T10:40:28;20.20;39.90
7234;DHT22;3658;47.992;10.158;2022-12-11T10:42:58;20.20;40.10
7234;DHT22;3658;47.992;10.158;2022-12-11T10:45:25;20.20;40.20
7234;DHT22;3658;47.992;10.158;2022-12-11T10:48:01;20.30;40.20
7234;DHT22;3658;47.992;10.158;2022-12-11T10:50:28;20.20;40.00
7234;DHT22;3658;47.992;10.158;2022-12-11T10:52:55;20.20;39.90
7234;DHT22;3658;47.992;10.158;2022-12-11T10:55:24;20.20;39.90
7234;DHT22;3658;47.992;10.158;2022-12-11T10:57:56;20.20;39.80
7234;DHT22;3658;47.992;10.158;2022-12-11T11:00:34;20.20;40.00
7234;DHT22;3658;47.992;10.158;2022-12-11T11:03:02;20.20;40.10
7234;DHT22;3658;47.992;10.158;2022-12-11T11:05:32;20.20;40.10
7234;DHT22;3658;47.992;10.158;2022-12-11T11:08:18;20.30;40.10
7234;DHT22;3658;47.992;10.158;2022-12-11T11:10:52;20.30;39.80
7234;DHT22;3658;47.992;10.158;2022-12-11T11:13:21;20.20;39.70
7234;DHT22;3658;47.992;10.158;2022-12-11T11:15:50;20.20;39.70
7234;DHT22;3658;47.992;10.158;2022-12-11T11:18:25;20.20;39.90
7234;DHT22;3658;47.992;10.158;2022-12-11T11:20:53;20.20;39.70
7234;DHT22;3658;47.992;10.158;2022-12-11T11:23:21;20.20;39.70
7234;DHT22;3658;47.992;10.158;2022-12-11T11:25:51;20.20;39.70
7234;DHT22;3658;47.992;10.158;2022-12-11T11:28:21;20.10;39.60
7234;DHT22;3658;47.992;10.158;2022-12-11T11:31:02;20.10;39.50
7234;DHT22;3658;47.992;10.158;2022-12-11T11:33:31;20.10;39.80
7234;DHT22;3658;47.992;10.158;2022-12-11T11:36:00;20.10;39.40
7234;DHT22;3658;47.992;10.158;2022-12-11T11:38:30;20.10;39.40
7234;DHT22;3658;47.992;10.158;2022-12-11T11:41:06;20.10;39.40
7234;DHT22;3658;47.992;10.158;2022-12-11T11:43:37;20.10;39.40
7234;DHT22;3658;47.992;10.158;2022-12-11T11:46:12;20.10;39.40
7234;DHT22;3658;47.992;10.158;2022-12-11T11:48:48;20.10;39.30
7234;DHT22;3658;47.992;10.158;2022-12-11T11:51:22;20.10;39.30
7234;DHT22;3658;47.992;10.158;2022-12-11T11:53:53;20.10;39.30
7234;DHT22;3658;47.992;10.158;2022-12-11T11:56:22;20.00;39.20
7234;DHT22;3658;47.992;10.158;2022-12-11T11:59:00;20.10;39.30
7234;DHT22;3658;47.992;10.158;2022-12-11T12:01:30;20.10;39.30
7234;DHT22;3658;47.992;10.158;2022-12-11T12:03:58;20.10;39.20
7234;DHT22;3658;47.992;10.158;2022-12-11T12:06:33;20.10;39.20
7234;DHT22;3658;47.992;10.158;2022-12-11T12:09:14;20.10;39.20
7234;DHT22;3658;47.992;10.158;2022-12-11T12:11:48;20.10;39.20
7234;DHT22;3658;47.992;10.158;2022-12-11T12:14:23;20.10;39.20
7234;DHT22;3658;47.992;10.158;2022-12-11T12:17:02;20.10;39.20
7234;DHT22;3658;47.992;10.158;2022-12-11T12:19:42;20.10;39.20
7234;DHT22;3658;47.992;10.158;2022-12-11T12:22:20;20.10;39.20
7234;DHT22;3658;47.992;10.158;2022-12-11T12:24:59;20.10;39.20
7234;DHT22;3658;47.992;10.158;2022-12-11T12:27:34;20.10;39.20
7234;DHT22;3658;47.992;10.158;2022-12-11T12:30:07;20.10;39.20
7234;DHT22;3658;47.992;10.158;2022-12-11T12:32:44;20.10;39.20
7234;DHT22;3658;47.992;10.158;2022-12-11T12:35:22;20.10;39.20
7234;DHT22;3658;47.992;10.158;2022-12-11T12:37:56;20.10;39.20
7234;DHT22;3658;47.992;10.158;2022-12-11T12:40:29;20.10;39.20
7234;DHT22;3658;47.992;10.158;2022-12-11T12:43:04;20.10;39.20
7234;DHT22;3658;47.992;10.158;2022-12-11T12:45:36;20.10;39.20
7234;DHT22;3658;47.992;10.158;2022-12-11T12:48:07;20.10;39.20
7234;DHT22;3658;47.992;10.158;2022-12-11T12:50:37;20.10;39.20
7234;DHT22;3658;47.992;10.158;2022-12-11T12:53:08;20.10;39.20
7234;DHT22;3658;47.992;10.158;2022-12-11T12:55:40;20.10;39.20
7234;DHT22;3658;47.992;10.158;2022-12-11T12:58:26;20.10;39.20
7234;DHT22;3658;47.992;10.158;2022-12-11T13:00:53;20.10;39.20
7234;DHT22;3658;47.992;10.158;2022-12-11T13:03:24;20.10;39.20
7234;DHT22;3658;47.992;10.158;2022-12-11T13:05:56;20.10;39.20
7234;DHT22;3658;47.992;10.158;2022-12-11T13:08:24;20.10;39.10
7234;DHT22;3658;47.992;10.158;2022-12-11T13:11:00;20.10;39.20
7234;DHT22;3658;47.992;10.158;2022-12-11T13:13:34;20.00;39.10
7234;DHT22;3658;47.992;10.158;2022-12-11T13:16:23;20.10;39.20
7234;DHT22;3658;47.992;10.158;2022-12-11T13:18:52;20.00;39.40
7234;DHT22;3658;47.992;10.158;2022-12-11T13:21:29;20.10;39.80
7234;DHT22;3658;47.992;10.158;2022-12-11T13:24:13;20.10;40.00
7234;DHT22;3658;47.992;10.158;2022-12-11T13:26:42;20.20;40.50
7234;DHT22;3658;47.992;10.158;2022-12-11T13:29:27;20.20;40.50
7234;DHT22;3658;47.992;10.158;2022-12-11T13:31:57;20.20;40.00
7234;DHT22;3658;47.992;10.158;2022-12-11T13:34:28;20.10;39.80
7234;DHT22;3658;47.992;10.158;2022-12-11T13:36:57;20.10;39.70
7234;DHT22;3658;47.992;10.158;2022-12-11T13:39:26;20.10;39.60
7234;DHT22;3658;47.992;10.158;2022-12-11T13:41:58;20.00;39.50
7234;DHT22;3658;47.992;10.158;2022-12-11T13:44:28;20.00;39.50
7234;DHT22;3658;47.992;10.158;2022-12-11T13:47:00;19.90;40.10
7234;DHT22;3658;47.992;10.158;2022-12-11T13:49:35;19.90;39.30
7234;DHT22;3658;47.992;10.158;2022-12-11T13:52:03;19.90;39.40
7234;DHT22;3658;47.992;10.158;2022-12-11T13:54:33;19.90;40.00
7234;DHT22;3658;47.992;10.158;2022-12-11T13:57:11;20.00;40.50
7234;DHT22;3658;47.992;10.158;2022-12-11T13:59:45;20.00;40.40
7234;DHT22;3658;47.992;10.158;2022-12-11T14:02:17;20.00;40.40
7234;DHT22;3658;47.992;10.158;2022-12-11T14:04:47;20.00;40.40
7234;DHT22;3658;47.992;10.158;2022-12-11T14:07:21;20.00;40.50
7234;DHT22;3658;47.992;10.158;2022-12-11T14:09:49;20.00;40.60
7234;DHT22;3658;47.992;10.158;2022-12-11T14:12:19;20.00;40.40
7234;DHT22;3658;47.992;10.158;2022-12-11T14:14:50;20.00;40.20
7234;DHT22;3658;47.992;10.158;2022-12-11T14:17:22;19.90;40.20
7234;DHT22;3658;47.992;10.158;2022-12-11T14:19:53;19.90;40.10
7234;DHT22;3658;47.992;10.158;2022-12-11T14:22:22;19.90;40.00
7234;DHT22;3658;47.992;10.158;2022-12-11T14:24:51;19.90;40.00
7234;DHT22;3658;47.992;10.158;2022-12-11T14:27:20;19.90;40.00
7234;DHT22;3658;47.992;10.158;2022-12-11T14:29:47;19.90;40.20
7234;DHT22;3658;47.992;10.158;2022-12-11T14:32:19;19.80;40.40
7234;DHT22;3658;47.992;10.158;2022-12-11T14:34:47;19.80;40.30
7234;DHT22;3658;47.992;10.158;2022-12-11T14:37:18;19.80;40.30
7234;DHT22;3658;47.992;10.158;2022-12-11T14:39:52;19.80;40.20
7234;DHT22;3658;47.992;10.158;2022-12-11T14:42:23;19.80;40.30
7234;DHT22;3658;47.992;10.158;2022-12-11T14:44:55;19.80;40.30
7234;DHT22;3658;47.992;10.158;2022-12-11T14:47:26;19.80;40.30
7234;DHT22;3658;47.992;10.158;2022-12-11T14:49:56;19.80;40.30
7234;DHT22;3658;47.992;10.158;2022-12-11T14:52:30;19.80;40.30
7234;DHT22;3658;47.992;10.158;2022-12-11T14:55:02;19.80;40.30
7234;DHT22;3658;47.992;10.158;2022-12-11T14:57:32;19.70;40.30
7234;DHT22;3658;47.992;10.158;2022-12-11T15:00:00;19.80;40.70
7234;DHT22;3658;47.992;10.158;2022-12-11T15:02:29;19.70;40.40
7234;DHT22;3658;47.992;10.158;2022-12-11T15:07:56;19.60;40.20
7234;DHT22;3658;47.992;10.158;2022-12-11T15:10:30;19.50;40.20
7234;DHT22;3658;47.992;10.158;2022-12-11T15:13:00;19.50;40.20
7234;DHT22;3658;47.992;10.158;2022-12-11T15:15:29;19.50;40.20
7234;DHT22;3658;47.992;10.158;2022-12-11T15:17:57;19.40;39.90
7234;DHT22;3658;47.992;10.158;2022-12-11T15:20:26;19.30;38.10
7234;DHT22;3658;47.992;10.158;2022-12-11T15:22:57;19.20;37.10
7234;DHT22;3658;47.992;10.158;2022-12-11T15:25:27;19.20;36.90
7234;DHT22;3658;47.992;10.158;2022-12-11T15:28:03;19.20;37.50
7234;DHT22;3658;47.992;10.158;2022-12-11T15:30:33;19.20;37.00
7234;DHT22;3658;47.992;10.158;2022-12-11T15:33:04;19.10;37.00
7234;DHT22;3658;47.992;10.158;2022-12-11T15:35:56;19.10;37.10
7234;DHT22;3658;47.992;10.158;2022-12-11T15:38:38;19.10;37.20
7234;DHT22;3658;47.992;10.158;2022-12-11T15:41:12;19.10;37.30
7234;DHT22;3658;47.992;10.158;2022-12-11T15:43:40;19.10;37.40
7234;DHT22;3658;47.992;10.158;2022-12-11T15:46:08;19.10;37.40
7234;DHT22;3658;47.992;10.158;2022-12-11T15:48:34;19.10;37.50
7234;DHT22;3658;47.992;10.158;2022-12-11T15:51:01;19.10;37.50
7234;DHT22;3658;47.992;10.158;2022-12-11T15:53:29;19.10;37.50
7234;DHT22;3658;47.992;10.158;2022-12-11T15:55:58;19.00;37.40
7234;DHT22;3658;47.992;10.158;2022-12-11T15:58:25;19.00;37.40
7234;DHT22;3658;47.992;10.158;2022-12-11T16:00:53;19.00;37.60
7234;DHT22;3658;47.992;10.158;2022-12-11T16:03:21;19.00;37.60
7234;DHT22;3658;47.992;10.158;2022-12-11T16:05:49;19.00;37.60